Data for 01/31/2010

Time Sea-Level Adjusted Pressure Absolute Pressure Temperature Relative Humidity Dew Point   
(mb) (inHg) (mb) (inHg) (C) (F) (%) (C) (F)
00:05 1014 29.94 843 24.89 -5.3 22.4 84 -7.6 18.4
00:10 1014 29.94 843 24.89 -5.3 22.4 84 -7.7 18.2
00:15 1014 29.94 843 24.89 -5.3 22.5 83 -7.7 18.2
00:20 1014 29.94 843 24.89 -5.3 22.4 83 -7.7 18.1
00:25 1014 29.94 843 24.89 -5.3 22.4 82 -7.9 17.7
00:30 1014 29.94 843 24.89 -5.3 22.5 83 -7.8 17.9
00:35 1014 29.94 843 24.89 -5.3 22.5 83 -7.8 17.9
00:40 1014 29.94 843 24.89 -5.3 22.4 83 -7.8 17.9
00:45 1014 29.94 843 24.89 -5.3 22.4 83 -7.7 18.1
00:50 1014 29.94 843 24.89 -5.3 22.4 83 -7.7 18.1
00:55 1014 29.94 843 24.89 -5.3 22.4 83 -7.8 17.9
01:00 1014 29.94 843 24.89 -5.3 22.5 82 -7.9 17.8
01:05 1014 29.94 843 24.89 -5.3 22.4 86 -7.4 18.7
01:10 1014 29.94 843 24.89 -5.7 21.7 88 -7.4 18.6
01:15 1014 29.94 843 24.89 -5.7 21.7 86 -7.7 18.1
01:20 1014 29.94 843 24.89 -5.7 21.8 89 -7.3 18.9
01:25 1014 29.94 843 24.89 -6.2 20.8 93 -7.3 18.9
01:30 1014 29.94 843 24.89 -6.6 20.2 94 -7.3 18.8
01:35 1013 29.91 843 24.89 -6.6 20.2 93 -7.5 18.6
01:40 1013 29.91 843 24.89 -6.3 20.6 91 -7.5 18.5
01:45 1013 29.91 842 24.86 -6.2 20.9 90 -7.6 18.4
01:50 1013 29.91 842 24.86 -5.9 21.4 84 -8.1 17.3
01:55 1013 29.91 842 24.86 -5.5 22.1 82 -8.1 17.5
02:00 1013 29.91 842 24.86 -5.4 22.3 82 -8 17.6
02:05 1013 29.91 842 24.86 -5.4 22.3 82 -8 17.5
02:10 1013 29.91 842 24.86 -5.4 22.2 82 -8.1 17.5
02:15 1013 29.91 842 24.86 -5.4 22.2 82 -8.1 17.5
02:20 1013 29.91 842 24.86 -5.5 22.1 82 -8.1 17.4
02:25 1013 29.91 842 24.86 -5.5 22 82 -8.1 17.3
02:30 1013 29.91 842 24.86 -5.5 22.1 82 -8.1 17.4
02:35 1013 29.91 842 24.86 -5.6 21.9 82 -8.1 17.3
02:40 1013 29.91 842 24.86 -5.6 21.9 83 -8.1 17.4
02:45 1013 29.91 842 24.86 -5.6 21.9 82 -8.2 17.3
02:50 1013 29.91 842 24.86 -5.7 21.8 86 -7.6 18.3
02:55 1013 29.91 842 24.86 -6.2 20.8 91 -7.6 18.4
03:00 1013 29.91 842 24.86 -6.6 20 93 -7.7 18.2
03:05 1013 29.91 842 24.86 -6.8 19.7 94 -7.7 18.2
03:10 1013 29.91 842 24.86 -6.9 19.6 94 -7.7 18.2
03:15 1013 29.91 842 24.86 -7.1 19.3 95 -7.7 18.1
03:20 1013 29.91 842 24.86 -7.3 19 96 -7.8 17.9
03:25 1013 29.91 842 24.86 -7.2 19.1 95 -7.8 18
03:30 1013 29.91 842 24.86 -7.3 18.9 96 -7.8 18
03:35 1013 29.91 842 24.86 -7.1 19.3 96 -7.6 18.3
03:40 1013 29.91 842 24.86 -7 19.4 96 -7.5 18.4
03:45 1013 29.91 842 24.86 -6.8 19.8 95 -7.4 18.6
03:50 1013 29.91 842 24.86 -6.9 19.6 95 -7.5 18.5
03:55 1013 29.91 842 24.86 -7 19.5 95 -7.6 18.3
04:00 1013 29.91 842 24.86 -6.9 19.6 95 -7.5 18.5
04:05 1013 29.91 842 24.86 -6.9 19.7 95 -7.5 18.4
04:10 1013 29.91 842 24.86 -6.9 19.6 95 -7.6 18.4
04:15 1013 29.91 842 24.86 -6.8 19.7 95 -7.5 18.5
04:20 1013 29.91 842 24.86 -6.9 19.6 95 -7.5 18.5
04:25 1013 29.91 842 24.86 -6.8 19.7 95 -7.5 18.6
04:30 1013 29.91 842 24.86 -6.7 20 95 -7.4 18.8
04:35 1013 29.91 842 24.86 -6.7 19.9 95 -7.4 18.8
04:40 1013 29.91 842 24.86 -6.7 20 94 -7.4 18.6
04:45 1013 29.91 842 24.86 -6.8 19.7 95 -7.6 18.4
04:50 1013 29.91 842 24.86 -6.8 19.7 95 -7.6 18.4
04:55 1013 29.91 842 24.86 -6.8 19.7 94 -7.7 18.2
05:00 1013 29.91 842 24.86 -6.9 19.6 93 -7.8 17.9
05:05 1013 29.91 842 24.86 -6.9 19.6 88 -8.5 16.6
05:10 1013 29.91 842 24.86 -6.7 19.9 85 -8.9 16.1
05:15 1012 29.88 842 24.86 -6.6 20.1 83 -9.1 15.7
05:20 1012 29.88 842 24.86 -6.6 20.2 80 -9.4 15
05:25 1012 29.88 842 24.86 -6.5 20.2 79 -9.6 14.8
05:30 1012 29.88 842 24.86 -6.6 20.2 80 -9.5 14.8
05:35 1012 29.88 842 24.86 -6.6 20.1 79 -9.7 14.5
05:40 1012 29.88 842 24.86 -6.6 20.1 75 -10.4 13.3
05:45 1012 29.88 842 24.86 -6.5 20.2 75 -10.3 13.5
05:50 1012 29.88 842 24.86 -6.5 20.3 76 -10 14
05:55 1012 29.88 842 24.86 -6.5 20.2 77 -10 14
06:00 1012 29.88 842 24.86 -6.6 20.2 78 -9.9 14.2
06:05 1012 29.88 842 24.86 -6.6 20.2 77 -10 14
06:10 1012 29.88 842 24.86 -6.6 20.1 80 -9.6 14.8
06:15 1012 29.88 842 24.86 -6.7 19.9 81 -9.5 14.9
06:20 1012 29.88 841 24.83 -6.8 19.8 78 -10 14.1
06:25 1012 29.88 841 24.83 -6.7 19.9 76 -10.2 13.6
06:30 1012 29.88 841 24.83 -6.7 19.9 78 -9.9 14.2
06:35 1012 29.88 841 24.83 -6.8 19.7 80 -9.8 14.4
06:40 1012 29.88 841 24.83 -6.9 19.5 81 -9.7 14.6
06:45 1012 29.88 841 24.83 -7 19.4 82 -9.6 14.8
06:50 1012 29.88 841 24.83 -7 19.4 82 -9.6 14.7
06:55 1012 29.88 841 24.83 -7 19.4 82 -9.6 14.7
07:00 1012 29.88 841 24.83 -7 19.4 80 -9.9 14.2
07:05 1012 29.88 841 24.83 -7 19.5 79 -10.1 13.8
07:10 1012 29.88 841 24.83 -7 19.5 77 -10.3 13.5
07:15 1012 29.88 841 24.83 -7 19.5 78 -10.3 13.5
07:20 1012 29.88 841 24.83 -6.9 19.5 78 -10.2 13.7
07:25 1012 29.88 842 24.86 -6.9 19.6 77 -10.3 13.5
07:30 1012 29.88 842 24.86 -6.9 19.7 76 -10.4 13.4
07:35 1012 29.88 842 24.86 -6.8 19.7 75 -10.5 13.1
07:40 1012 29.88 842 24.86 -6.9 19.6 75 -10.5 13.1
07:45 1012 29.88 842 24.86 -6.9 19.6 76 -10.5 13.1
07:50 1012 29.88 842 24.86 -6.9 19.6 76 -10.4 13.3
07:55 1012 29.88 842 24.86 -6.9 19.6 76 -10.5 13.1
08:00 1012 29.88 842 24.86 -6.9 19.6 76 -10.5 13.2
08:05 1012 29.88 842 24.86 -6.9 19.6 76 -10.5 13.1
08:10 1012 29.88 842 24.86 -6.8 19.7 75 -10.6 12.9
08:15 1012 29.88 842 24.86 -6.9 19.7 75 -10.5 13
08:20 1012 29.88 842 24.86 -6.9 19.6 76 -10.5 13.1
08:25 1012 29.88 842 24.86 -6.9 19.6 76 -10.5 13.1
08:30 1012 29.88 842 24.86 -6.9 19.6 76 -10.5 13.1
08:35 1012 29.88 842 24.86 -6.8 19.7 75 -10.6 12.9
08:40 1012 29.88 841 24.83 -6.8 19.8 74 -10.7 12.8
08:45 1012 29.88 841 24.83 -6.7 19.9 74 -10.6 12.8
08:50 1012 29.88 842 24.86 -6.7 19.9 74 -10.6 12.9
08:55 1012 29.88 841 24.83 -6.7 20 74 -10.5 13.1
09:00 1012 29.88 841 24.83 -6.6 20.1 73 -10.6 12.9
09:05 1012 29.88 841 24.83 -6.6 20.1 73 -10.7 12.8
09:10 1012 29.88 841 24.83 -6.6 20.1 73 -10.6 12.9
09:15 1012 29.88 841 24.83 -6.5 20.2 78 -9.8 14.4
09:20 1012 29.88 841 24.83 -6.4 20.4 83 -8.9 16
09:25 1012 29.88 841 24.83 -6.5 20.3 84 -8.8 16.2
09:30 1012 29.88 842 24.86 -6.5 20.3 85 -8.6 16.5
09:35 1012 29.88 842 24.86 -6.7 20 86 -8.6 16.5
09:40 1012 29.88 841 24.83 -6.8 19.7 88 -8.5 16.7
09:45 1012 29.88 841 24.83 -6.3 20.7 85 -8.5 16.8
09:50 1012 29.88 842 24.86 -5.9 21.4 82 -8.5 16.7
09:55 1012 29.88 842 24.86 -6.2 20.9 85 -8.3 17
10:00 1012 29.88 842 24.86 -6.3 20.6 84 -8.6 16.5
10:05 1012 29.88 842 24.86 -6 21.2 84 -8.4 16.9
10:10 1012 29.88 842 24.86 -5.8 21.5 82 -8.4 16.8
10:15 1012 29.88 842 24.86 -6 21.3 82 -8.6 16.6
10:20 1012 29.88 842 24.86 -5.9 21.4 81 -8.6 16.6
10:25 1012 29.88 842 24.86 -6 21.2 83 -8.4 16.9
10:30 1012 29.88 842 24.86 -6.1 21 83 -8.6 16.5
10:35 1012 29.88 842 24.86 -6 21.2 82 -8.7 16.4
10:40 1012 29.88 842 24.86 -6.5 20.3 86 -8.5 16.6
10:45 1012 29.88 842 24.86 -6.6 20 86 -8.6 16.6
10:50 1012 29.88 842 24.86 -5.9 21.4 82 -8.5 16.6
10:55 1012 29.88 842 24.86 -5.6 21.9 82 -8.2 17.3
11:00 1012 29.88 842 24.86 -5.7 21.8 81 -8.5 16.7
11:05 1012 29.88 842 24.86 -5.3 22.5 80 -8.3 17.1
11:10 1012 29.88 842 24.86 -4.9 23.1 79 -8.1 17.4
11:15 1012 29.88 842 24.86 -5 22.9 78 -8.4 17
11:20 1012 29.88 842 24.86 -5.1 22.9 78 -8.3 17.1
11:25 1012 29.88 842 24.86 -4.9 23.2 77 -8.4 16.9
11:30 1012 29.88 841 24.83 -4.6 23.7 75 -8.4 16.9
11:35 1012 29.88 841 24.83 -4.4 24.1 75 -8.1 17.4
11:40 1012 29.88 841 24.83 -4.8 23.4 76 -8.3 17.1
11:45 1012 29.88 841 24.83 -4.3 24.3 74 -8.3 17.1
11:50 1012 29.88 841 24.83 -4.3 24.2 77 -7.8 17.9
11:55 1012 29.88 841 24.83 -4.4 24.1 74 -8.4 16.9
12:00 1012 29.88 841 24.83 -4 24.7 74 -8.1 17.5
12:05 1012 29.88 841 24.83 -4 24.8 74 -7.9 17.7
12:10 1012 29.88 841 24.83 -4.7 23.6 79 -7.8 18
12:15 1012 29.88 841 24.83 -4.9 23.1 77 -8.3 17
12:20 1012 29.88 841 24.83 -4.7 23.6 77 -8 17.6
12:25 1012 29.88 841 24.83 -4.9 23.2 77 -8.3 17
12:30 1012 29.88 841 24.83 -4.7 23.6 77 -8 17.5
12:35 1012 29.88 841 24.83 -5 23 79 -8.1 17.4
12:40 1012 29.88 841 24.83 -5 23.1 79 -8.1 17.4
12:45 1012 29.88 841 24.83 -5.2 22.7 81 -8 17.6
12:50 1012 29.88 841 24.83 -4.8 23.4 77 -8.2 17.2
12:55 1011 29.85 841 24.83 -4.8 23.4 79 -7.8 18
13:00 1011 29.85 841 24.83 -4 24.8 74 -7.9 17.7
13:05 1012 29.88 841 24.83 -4.2 24.4 78 -7.5 18.5
13:10 1012 29.88 841 24.83 -4.3 24.3 78 -7.5 18.5
13:15 1011 29.85 841 24.83 -4.5 23.8 79 -7.6 18.2
13:20 1011 29.85 841 24.83 -4.2 24.5 78 -7.5 18.5
13:25 1011 29.85 841 24.83 -3.9 25 75 -7.8 18
13:30 1011 29.85 841 24.83 -3.5 25.7 73 -7.7 18.2
13:35 1011 29.85 841 24.83 -2.9 26.7 71 -7.5 18.4
13:40 1011 29.85 841 24.83 -2.4 27.8 67 -7.7 18.1
13:45 1011 29.85 841 24.83 -2.6 27.4 70 -7.3 18.9
13:50 1011 29.85 840 24.81 -2.7 27.1 71 -7.3 18.8
13:55 1011 29.85 840 24.81 -2.9 26.8 70 -7.6 18.3
14:00 1011 29.85 840 24.81 -3 26.7 71 -7.4 18.6
14:05 1011 29.85 840 24.81 -2.9 26.8 71 -7.4 18.7
14:10 1011 29.85 840 24.81 -3.4 26 73 -7.6 18.4
14:15 1011 29.85 840 24.81 -3.2 26.2 71 -7.7 18.1
14:20 1011 29.85 840 24.81 -3.3 26.1 73 -7.6 18.4
14:25 1011 29.85 840 24.81 -3.3 26 73 -7.5 18.5
14:30 1011 29.85 840 24.81 -3.9 25 76 -7.5 18.5
14:35 1011 29.85 840 24.81 -4.7 23.5 80 -7.6 18.2
14:40 1011 29.85 840 24.81 -5.2 22.7 82 -7.8 18
14:45 1011 29.85 840 24.81 -4.6 23.7 78 -7.9 17.8
14:50 1011 29.85 840 24.81 -4.3 24.2 77 -7.8 17.9
14:55 1011 29.85 840 24.81 -4.2 24.4 78 -7.5 18.4
15:00 1011 29.85 840 24.81 -4.1 24.6 75 -7.8 17.9
15:05 1011 29.85 840 24.81 -3.9 25 77 -7.3 18.8
15:10 1011 29.85 840 24.81 -4.2 24.4 79 -7.4 18.8
15:15 1011 29.85 840 24.81 -4 24.8 76 -7.6 18.4
15:20 1011 29.85 840 24.81 -4.2 24.5 77 -7.6 18.4
15:25 1011 29.85 840 24.81 -4.4 24 79 -7.6 18.3
15:30 1011 29.85 840 24.81 -4.3 24.2 76 -8 17.6
15:35 1011 29.85 840 24.81 -4.8 23.4 79 -7.9 17.7
15:40 1011 29.85 840 24.81 -4.8 23.3 77 -8.2 17.2
15:45 1011 29.85 840 24.81 -4.5 23.9 76 -8.2 17.3
15:50 1011 29.85 840 24.81 -4.1 24.6 73 -8.3 17.1
15:55 1011 29.85 840 24.81 -4.1 24.6 73 -8.3 17.1
16:00 1011 29.85 840 24.81 -4.2 24.4 74 -8.1 17.4
16:05 1011 29.85 840 24.81 -4.3 24.2 78 -7.7 18.1
16:10 1011 29.85 840 24.81 -4.4 24.1 78 -7.6 18.3
16:15 1011 29.85 840 24.81 -4.5 23.9 80 -7.5 18.5
16:20 1011 29.85 840 24.81 -4.9 23.1 81 -7.7 18.1
16:25 1011 29.85 840 24.81 -5.1 22.8 82 -7.7 18.1
16:30 1011 29.85 840 24.81 -5.3 22.5 82 -7.9 17.7
16:35 1011 29.85 840 24.81 -5.5 22.2 84 -7.7 18.2
16:40 1011 29.85 840 24.81 -5.1 22.8 82 -7.7 18.2
16:45 1011 29.85 840 24.81 -4.9 23.2 81 -7.7 18.1
16:50 1011 29.85 840 24.81 -4.9 23.2 80 -7.8 18
16:55 1011 29.85 840 24.81 -5.2 22.6 83 -7.6 18.2
17:00 1011 29.85 840 24.81 -5.2 22.7 82 -7.8 18
17:05 1011 29.85 840 24.81 -5.1 22.8 82 -7.7 18.1
17:10 1011 29.85 840 24.81 -5 23.1 81 -7.7 18.1
17:15 1011 29.85 840 24.81 -5.1 22.8 82 -7.7 18.1
17:20 1011 29.85 840 24.81 -5.3 22.6 83 -7.8 18
17:25 1011 29.85 840 24.81 -5.2 22.6 82 -7.8 18
17:30 1011 29.85 840 24.81 -5.3 22.5 82 -7.8 17.9
17:35 1011 29.85 840 24.81 -5.3 22.4 83 -7.8 18
17:40 1011 29.85 840 24.81 -5.2 22.6 84 -7.6 18.4
17:45 1011 29.85 840 24.81 -5.2 22.7 83 -7.6 18.3
17:50 1011 29.85 840 24.81 -5.2 22.6 84 -7.6 18.4
17:55 1011 29.85 840 24.81 -5.4 22.4 84 -7.6 18.3
18:00 1011 29.85 840 24.81 -5.6 21.9 86 -7.6 18.2
18:05 1011 29.85 840 24.81 -5.7 21.7 87 -7.5 18.5
18:10 1011 29.85 840 24.81 -5.8 21.5 88 -7.5 18.5
18:15 1011 29.85 840 24.81 -5.9 21.3 89 -7.4 18.7
18:20 1011 29.85 840 24.81 -5.9 21.4 90 -7.4 18.8
18:25 1011 29.85 840 24.81 -5.8 21.5 89 -7.4 18.8
18:30 1011 29.85 840 24.81 -6 21.2 90 -7.4 18.7
18:35 1011 29.85 840 24.81 -6 21.1 90 -7.5 18.6
18:40 1011 29.85 840 24.81 -6.1 21 90 -7.5 18.5
18:45 1011 29.85 840 24.81 -6.1 20.9 90 -7.5 18.4
18:50 1011 29.85 840 24.81 -6.1 21 90 -7.5 18.5
18:55 1011 29.85 840 24.81 -6 21.1 90 -7.4 18.6
19:00 1011 29.85 840 24.81 -5.9 21.4 89 -7.3 18.8
19:05 1011 29.85 840 24.81 -5.8 21.5 89 -7.3 18.9
19:10 1011 29.85 840 24.81 -5.8 21.5 89 -7.3 18.8
19:15 1011 29.85 840 24.81 -5.8 21.6 89 -7.2 19
19:20 1011 29.85 840 24.81 -5.7 21.8 89 -7.2 19
19:25 1011 29.85 840 24.81 -5.7 21.8 89 -7.3 18.9
19:30 1011 29.85 840 24.81 -5.7 21.7 89 -7.3 18.9
19:35 1011 29.85 840 24.81 -5.6 21.9 88 -7.3 18.9
19:40 1011 29.85 841 24.83 -5.5 22 87 -7.3 18.9
19:45 1011 29.85 841 24.83 -5.6 22 88 -7.3 18.9
19:50 1011 29.85 841 24.83 -5.6 22 88 -7.3 18.8
19:55 1011 29.85 841 24.83 -5.5 22 88 -7.3 18.9
20:00 1011 29.85 841 24.83 -5.5 22 88 -7.2 19
20:05 1011 29.85 841 24.83 -5.6 21.9 89 -7.2 19.1
20:10 1011 29.85 841 24.83 -5.7 21.7 89 -7.3 18.9
20:15 1011 29.85 841 24.83 -5.8 21.5 89 -7.3 18.9
20:20 1011 29.85 841 24.83 -5.8 21.6 90 -7.2 19.1
20:25 1011 29.85 841 24.83 -5.7 21.7 90 -7.1 19.2
20:30 1011 29.85 841 24.83 -5.7 21.7 90 -7.1 19.1
20:35 1011 29.85 841 24.83 -5.9 21.4 91 -7.2 19.1
20:40 1011 29.85 841 24.83 -5.8 21.5 90 -7.2 19
20:45 1011 29.85 841 24.83 -5.9 21.5 90 -7.2 19.1
20:50 1011 29.85 841 24.83 -5.9 21.3 91 -7.2 19.1
20:55 1011 29.85 841 24.83 -6 21.2 91 -7.2 19.1
21:00 1011 29.85 841 24.83 -5.9 21.4 91 -7.1 19.2
21:05 1011 29.85 841 24.83 -5.9 21.4 91 -7.2 19
21:10 1011 29.85 841 24.83 -5.9 21.4 91 -7.1 19.1
21:15 1011 29.85 841 24.83 -5.9 21.4 91 -7.1 19.2
21:20 1011 29.85 841 24.83 -5.8 21.6 91 -7.1 19.2
21:25 1011 29.85 841 24.83 -5.8 21.6 90 -7.1 19.2
21:30 1011 29.85 841 24.83 -5.9 21.4 91 -7.1 19.2
21:35 1011 29.85 841 24.83 -5.8 21.5 91 -7.1 19.3
21:40 1011 29.85 841 24.83 -5.8 21.6 91 -7 19.4
21:45 1011 29.85 841 24.83 -5.7 21.7 91 -7 19.5
21:50 1011 29.85 841 24.83 -5.7 21.8 91 -7 19.5
21:55 1011 29.85 841 24.83 -5.7 21.7 91 -7 19.5
22:00 1011 29.85 841 24.83 -5.8 21.5 92 -7 19.4
22:05 1011 29.85 841 24.83 -5.9 21.3 92 -7.1 19.3
22:10 1011 29.85 841 24.83 -6 21.2 92 -7.1 19.2
22:15 1011 29.85 841 24.83 -6 21.2 92 -7.1 19.3
22:20 1011 29.85 841 24.83 -6 21.3 92 -7.1 19.2
22:25 1011 29.85 841 24.83 -6 21.2 92 -7.1 19.1
22:30 1011 29.85 841 24.83 -6 21.2 92 -7.1 19.2
22:35 1011 29.85 841 24.83 -5.9 21.4 92 -7 19.3
22:40 1011 29.85 841 24.83 -5.9 21.4 91 -7.1 19.2
22:45 1011 29.85 841 24.83 -6 21.2 92 -7.1 19.2
22:50 1012 29.88 841 24.83 -6 21.1 91 -7.2 19
22:55 1012 29.88 841 24.83 -6.1 21.1 92 -7.2 19
23:00 1012 29.88 841 24.83 -6 21.2 92 -7.2 19.1
23:05 1012 29.88 841 24.83 -6 21.2 91 -7.2 19
23:10 1012 29.88 841 24.83 -6.1 21.1 91 -7.3 18.9
23:15 1012 29.88 841 24.83 -6 21.2 91 -7.2 19
23:20 1012 29.88 841 24.83 -5.8 21.5 91 -7.1 19.2
23:25 1012 29.88 841 24.83 -5.7 21.8 90 -7.1 19.3
23:30 1012 29.88 841 24.83 -5.7 21.8 90 -7.1 19.2
23:35 1012 29.88 841 24.83 -5.7 21.7 90 -7.1 19.3
23:40 1012 29.88 841 24.83 -5.6 21.9 89 -7.1 19.2
23:45 1012 29.88 841 24.83 -5.6 21.9 90 -7 19.4
23:50 1012 29.88 841 24.83 -5.5 22.1 89 -7 19.4
23:55 1012 29.88 841 24.83 -5.4 22.3 89 -6.9 19.6
24:00 1012 29.88 841 24.83 -5.3 22.4 89 -6.9 19.6